createdAt,value
2016-08-20T00:00:41.394Z,0.00
2016-08-20T00:01:41.935Z,0.00
2016-08-20T00:02:42.472Z,0.00
2016-08-20T00:03:43.014Z,0.00
2016-08-20T00:04:43.552Z,0.00
2016-08-20T00:05:44.095Z,0.00
2016-08-20T00:06:44.633Z,0.00
2016-08-20T00:07:45.173Z,0.00
2016-08-20T00:08:45.863Z,0.00
2016-08-20T00:09:46.264Z,0.00
2016-08-20T00:10:46.805Z,0.00
2016-08-20T00:11:47.348Z,0.00
2016-08-20T00:12:47.903Z,0.00
2016-08-20T00:13:48.430Z,0.00
2016-08-20T00:14:48.973Z,0.00
2016-08-20T00:15:49.516Z,0.00
2016-08-20T00:16:50.063Z,0.00
2016-08-20T00:17:50.632Z,0.00
2016-08-20T00:18:51.131Z,0.00
2016-08-20T00:19:51.672Z,0.00
2016-08-20T00:20:52.212Z,0.00
2016-08-20T00:21:52.754Z,0.00
2016-08-20T00:22:53.442Z,0.00
2016-08-20T00:23:53.832Z,0.00
2016-08-20T00:24:54.530Z,0.00
2016-08-20T00:25:55.069Z,0.00
2016-08-20T00:26:55.467Z,0.00
2016-08-20T00:27:55.994Z,0.00
2016-08-20T00:28:56.541Z,0.00
2016-08-20T00:29:57.079Z,0.00
2016-08-20T00:30:57.633Z,0.00
2016-08-20T00:31:59.057Z,0.00
2016-08-20T00:32:58.848Z,0.00
2016-08-20T00:33:59.243Z,0.00
2016-08-20T00:34:59.778Z,0.00
2016-08-20T00:36:00.324Z,0.00
2016-08-20T00:37:00.862Z,0.00
2016-08-20T00:38:02.150Z,0.00
2016-08-20T00:39:01.948Z,0.00
2016-08-20T00:40:02.480Z,0.00
2016-08-20T00:41:03.050Z,0.00
2016-08-20T00:42:03.568Z,0.00
2016-08-20T00:43:04.104Z,0.00
2016-08-20T00:44:04.645Z,0.00
2016-08-20T00:45:05.185Z,0.00
2016-08-20T00:46:05.728Z,0.00
2016-08-20T00:47:06.273Z,0.00
2016-08-20T00:48:06.816Z,0.00
2016-08-20T00:49:07.360Z,0.00
2016-08-20T00:50:07.920Z,0.00
2016-08-20T00:51:08.463Z,0.00
2016-08-20T00:52:08.983Z,0.00
2016-08-20T00:53:09.522Z,0.00
2016-08-20T00:54:10.064Z,0.00
2016-08-20T00:55:10.604Z,0.00
2016-08-20T00:56:11.137Z,0.00
2016-08-20T00:57:11.680Z,0.00
2016-08-20T00:58:12.222Z,0.00
2016-08-20T00:59:12.758Z,0.00
2016-08-20T01:00:13.299Z,0.00
2016-08-20T01:01:13.836Z,0.00
2016-08-20T01:02:14.377Z,0.00
2016-08-20T01:03:14.915Z,0.00
2016-08-20T01:04:15.454Z,0.00
2016-08-20T01:05:16.143Z,0.00
2016-08-20T01:06:16.538Z,0.00
2016-08-20T01:07:17.075Z,0.00
2016-08-20T01:08:17.612Z,0.00
2016-08-20T01:09:18.305Z,0.00
2016-08-20T01:10:18.711Z,0.00
2016-08-20T01:11:19.234Z,0.00
2016-08-20T01:12:19.773Z,0.00
2016-08-20T01:13:20.465Z,0.00
2016-08-20T01:14:20.860Z,0.00
2016-08-20T01:15:21.396Z,0.00
2016-08-20T01:16:21.937Z,0.00
2016-08-20T01:17:22.480Z,0.00
2016-08-20T01:18:23.014Z,0.00
2016-08-20T01:19:23.557Z,0.00
2016-08-20T01:20:24.097Z,0.00
2016-08-20T01:21:24.789Z,0.00
2016-08-20T01:22:25.175Z,0.00
2016-08-20T01:23:25.911Z,0.00
2016-08-20T01:24:26.263Z,0.00
2016-08-20T01:25:26.808Z,0.00
2016-08-20T01:26:27.349Z,0.00
2016-08-20T01:27:27.888Z,0.00
2016-08-20T01:28:28.465Z,0.00
2016-08-20T01:29:28.966Z,0.00
2016-08-20T01:30:29.508Z,0.00
2016-08-20T01:31:30.048Z,0.00
2016-08-20T01:32:30.589Z,0.00
2016-08-20T01:33:31.139Z,0.00
2016-08-20T01:34:31.673Z,0.00
2016-08-20T01:35:32.206Z,0.00
2016-08-20T01:36:32.745Z,0.00
2016-08-20T01:37:33.282Z,0.00
2016-08-20T01:38:33.823Z,0.00
2016-08-20T01:39:34.364Z,0.00
2016-08-20T01:40:34.905Z,0.00
2016-08-20T01:41:35.441Z,0.00
2016-08-20T01:42:36.169Z,0.00
2016-08-20T01:43:36.674Z,0.00
2016-08-20T01:44:37.213Z,0.00
2016-08-20T01:45:37.603Z,0.00
2016-08-20T01:46:38.144Z,0.00
2016-08-20T01:47:38.688Z,0.00
2016-08-20T01:48:39.225Z,0.00
2016-08-20T01:49:39.760Z,0.00
2016-08-20T01:50:41.209Z,0.00
2016-08-20T01:51:40.840Z,0.00
2016-08-20T01:52:41.390Z,0.00
2016-08-20T01:53:41.924Z,0.00
2016-08-20T01:54:42.462Z,0.00
2016-08-20T01:55:43.006Z,0.00
2016-08-20T01:56:43.547Z,0.00
2016-08-20T01:57:44.088Z,0.00
2016-08-20T01:58:44.628Z,0.00
2016-08-20T01:59:45.345Z,0.00
2016-08-20T02:00:46.021Z,0.00
2016-08-20T02:01:46.266Z,0.00
2016-08-20T02:02:46.805Z,0.00
2016-08-20T02:03:47.341Z,0.00
2016-08-20T02:04:47.880Z,0.00
2016-08-20T02:05:48.446Z,0.00
2016-08-20T02:06:48.963Z,0.00
2016-08-20T02:07:49.499Z,0.00
2016-08-20T02:08:50.033Z,0.00
2016-08-20T02:09:50.730Z,0.00
2016-08-20T02:10:51.117Z,0.00
2016-08-20T02:11:51.654Z,0.00
2016-08-20T02:12:52.215Z,0.00
2016-08-20T02:13:52.886Z,0.00
2016-08-20T02:14:53.282Z,0.00
2016-08-20T02:15:53.817Z,0.00
2016-08-20T02:16:54.356Z,0.00
2016-08-20T02:17:55.047Z,0.00
2016-08-20T02:18:55.441Z,0.00
2016-08-20T02:19:55.977Z,0.00
2016-08-20T02:20:56.519Z,0.00
2016-08-20T02:21:57.248Z,0.00
2016-08-20T02:22:57.629Z,0.00
2016-08-20T02:23:58.138Z,0.00
2016-08-20T02:24:58.679Z,0.00
2016-08-20T02:25:59.369Z,0.00
2016-08-20T02:26:59.909Z,0.00
2016-08-20T02:28:00.295Z,0.00
2016-08-20T02:29:00.836Z,0.00
2016-08-20T02:30:01.526Z,0.00
2016-08-20T02:31:01.915Z,0.00
2016-08-20T02:32:02.599Z,0.00
2016-08-20T02:33:02.996Z,0.00
2016-08-20T02:34:03.687Z,0.00
2016-08-20T02:35:04.080Z,0.00
2016-08-20T02:36:04.622Z,0.00
2016-08-20T02:37:05.167Z,0.00
2016-08-20T02:38:05.867Z,0.00
2016-08-20T02:39:06.250Z,0.00
2016-08-20T02:40:06.785Z,0.00
2016-08-20T02:41:07.321Z,0.00
2016-08-20T02:42:07.865Z,0.00
2016-08-20T02:43:08.552Z,0.00
2016-08-20T02:44:08.943Z,0.00
2016-08-20T02:45:09.483Z,0.00
2016-08-20T02:46:10.019Z,0.00
2016-08-20T02:47:10.557Z,0.00
2016-08-20T02:48:11.097Z,0.00
2016-08-20T02:49:11.639Z,0.00
2016-08-20T02:50:12.177Z,0.00
2016-08-20T02:51:12.865Z,0.00
2016-08-20T02:52:13.257Z,0.00
2016-08-20T02:53:13.793Z,0.00
2016-08-20T02:54:14.336Z,0.00
2016-08-20T02:55:14.879Z,0.00
2016-08-20T02:56:17.069Z,0.00
2016-08-20T02:57:16.139Z,0.00
2016-08-20T02:58:16.514Z,0.00
2016-08-20T02:59:17.185Z,0.00
2016-08-20T03:00:17.596Z,0.00
2016-08-20T03:01:18.133Z,0.00
2016-08-20T03:02:18.657Z,0.00
2016-08-20T03:03:19.191Z,0.00
2016-08-20T03:04:19.732Z,0.00
2016-08-20T03:05:20.275Z,0.00
2016-08-20T03:06:20.813Z,0.00
2016-08-20T03:07:21.355Z,0.00
2016-08-20T03:08:21.892Z,0.00
2016-08-20T03:09:22.429Z,0.00
2016-08-20T03:10:22.971Z,0.00
2016-08-20T03:11:23.514Z,0.00
2016-08-20T03:12:24.058Z,0.00
2016-08-20T03:13:24.600Z,0.00
2016-08-20T03:14:25.442Z,0.00
2016-08-20T03:15:25.687Z,0.00
2016-08-20T03:16:26.226Z,0.00
2016-08-20T03:17:26.765Z,0.00
2016-08-20T03:18:27.308Z,0.00
2016-08-20T03:19:27.870Z,0.00
2016-08-20T03:20:28.533Z,0.00
2016-08-20T03:21:28.926Z,0.00
2016-08-20T03:22:29.467Z,0.00
2016-08-20T03:23:30.015Z,0.00
2016-08-20T03:24:30.546Z,0.00
2016-08-20T03:25:31.089Z,0.00
2016-08-20T03:26:31.920Z,0.00
2016-08-20T03:27:32.165Z,0.00
2016-08-20T03:28:32.706Z,0.00
2016-08-20T03:29:33.269Z,0.00
2016-08-20T03:30:33.788Z,0.00
2016-08-20T03:31:34.328Z,0.00
2016-08-20T03:32:34.866Z,0.00
2016-08-20T03:33:35.558Z,0.00
2016-08-20T03:34:35.948Z,0.00
2016-08-20T03:35:36.487Z,0.00
2016-08-20T03:36:37.179Z,0.00
2016-08-20T03:37:37.716Z,0.00
2016-08-20T03:38:38.130Z,0.00
2016-08-20T03:39:38.649Z,0.00
2016-08-20T03:40:39.187Z,0.00
2016-08-20T03:41:39.729Z,0.00
2016-08-20T03:42:40.269Z,0.00
2016-08-20T03:43:40.811Z,0.00
2016-08-20T03:44:41.347Z,0.00
2016-08-20T03:45:41.888Z,0.00
2016-08-20T03:46:42.428Z,0.00
2016-08-20T03:47:42.987Z,0.00
2016-08-20T03:48:43.515Z,0.00
2016-08-20T03:49:44.056Z,0.00
2016-08-20T03:50:44.601Z,0.00
2016-08-20T03:51:45.140Z,0.00
2016-08-20T03:52:45.682Z,0.00
2016-08-20T03:53:46.265Z,0.00
2016-08-20T03:54:46.911Z,0.00
2016-08-20T03:55:47.302Z,0.00
2016-08-20T03:56:47.839Z,0.00
2016-08-20T03:57:48.527Z,0.00
2016-08-20T03:58:48.916Z,0.00
2016-08-20T03:59:49.452Z,0.00
2016-08-20T04:00:49.993Z,0.00
2016-08-20T04:01:50.838Z,0.00
2016-08-20T04:02:51.077Z,0.00
2016-08-20T04:03:51.613Z,0.00
2016-08-20T04:04:52.154Z,0.00
2016-08-20T04:05:52.694Z,0.00
2016-08-20T04:06:53.378Z,0.00
2016-08-20T04:07:53.772Z,0.00
2016-08-20T04:08:54.312Z,0.00
2016-08-20T04:09:54.849Z,0.00
2016-08-20T04:10:55.416Z,0.00
2016-08-20T04:11:56.079Z,0.00
2016-08-20T04:12:56.622Z,0.00
2016-08-20T04:13:57.011Z,0.00
2016-08-20T04:14:57.544Z,0.00
2016-08-20T04:15:58.087Z,0.00
2016-08-20T04:16:58.623Z,0.00
2016-08-20T04:17:59.161Z,0.00
2016-08-20T04:18:59.851Z,0.00
2016-08-20T04:20:00.240Z,0.00
2016-08-20T04:21:00.932Z,0.00
2016-08-20T04:22:01.469Z,0.00
2016-08-20T04:23:01.863Z,0.00
2016-08-20T04:24:02.558Z,0.00
2016-08-20T04:25:02.952Z,0.00
2016-08-20T04:26:03.517Z,0.00
2016-08-20T04:27:04.037Z,0.00
2016-08-20T04:28:04.579Z,0.00
2016-08-20T04:29:05.117Z,0.00
2016-08-20T04:30:06.706Z,0.00
2016-08-20T04:31:06.195Z,0.00
2016-08-20T04:32:06.737Z,0.00
2016-08-20T04:33:07.275Z,0.00
2016-08-20T04:34:07.817Z,0.00
2016-08-20T04:35:08.360Z,0.00
2016-08-20T04:36:08.914Z,0.00
2016-08-20T04:37:09.444Z,0.00
2016-08-20T04:38:09.973Z,0.00
2016-08-20T04:39:10.514Z,0.00
2016-08-20T04:40:11.054Z,0.00
2016-08-20T04:41:11.594Z,0.00
2016-08-20T04:42:12.134Z,0.00
2016-08-20T04:43:12.672Z,0.00
2016-08-20T04:44:13.214Z,0.00
2016-08-20T04:45:13.759Z,0.00
2016-08-20T04:46:14.296Z,0.00
2016-08-20T04:47:14.836Z,0.00
2016-08-20T04:48:15.381Z,0.00
2016-08-20T04:49:15.914Z,0.00
2016-08-20T04:50:16.477Z,0.00
2016-08-20T04:51:17.145Z,0.00
2016-08-20T04:52:17.547Z,0.00
2016-08-20T04:53:18.073Z,0.00
2016-08-20T04:54:18.633Z,1.00
2016-08-20T04:55:19.158Z,1.00
2016-08-20T04:56:19.693Z,1.00
2016-08-20T04:57:20.236Z,2.00
2016-08-20T04:58:20.924Z,2.00
2016-08-20T04:59:21.317Z,2.00
2016-08-20T05:00:22.755Z,2.00
2016-08-20T05:01:22.404Z,3.00
2016-08-20T05:02:22.953Z,3.00
2016-08-20T05:03:23.494Z,3.00
2016-08-20T05:04:24.034Z,4.00
2016-08-20T05:05:24.575Z,4.00
2016-08-20T05:06:25.285Z,4.00
2016-08-20T05:07:25.657Z,4.00
2016-08-20T05:08:26.200Z,3.00
2016-08-20T05:09:26.740Z,3.00
2016-08-20T05:10:27.298Z,3.00
2016-08-20T05:11:27.818Z,3.00
2016-08-20T05:12:28.361Z,3.00
2016-08-20T05:13:28.901Z,3.00
2016-08-20T05:14:29.442Z,2.00
2016-08-20T05:15:29.987Z,2.00
2016-08-20T05:16:30.521Z,2.00
2016-08-20T05:17:31.059Z,2.00
2016-08-20T05:18:31.598Z,1.00
2016-08-20T05:19:32.140Z,1.00
2016-08-20T05:20:32.693Z,1.00
2016-08-20T05:21:33.368Z,1.00
2016-08-20T05:22:33.907Z,1.00
2016-08-20T05:23:34.296Z,1.00
2016-08-20T05:24:34.837Z,1.00
2016-08-20T05:25:35.398Z,1.00
2016-08-20T05:26:35.915Z,1.00
2016-08-20T05:27:36.454Z,1.00
2016-08-20T05:28:36.999Z,1.00
2016-08-20T05:29:37.537Z,1.00
2016-08-20T05:30:38.079Z,1.00
2016-08-20T05:31:38.620Z,2.00
2016-08-20T05:32:39.163Z,2.00
2016-08-20T05:33:39.699Z,2.00
2016-08-20T05:34:40.263Z,2.00
2016-08-20T05:35:40.786Z,2.00
2016-08-20T05:36:41.328Z,2.00
2016-08-20T05:37:41.869Z,2.00
2016-08-20T05:38:42.413Z,2.00
2016-08-20T05:39:42.957Z,2.00
2016-08-20T05:40:43.496Z,2.00
2016-08-20T05:41:44.034Z,2.00
2016-08-20T05:42:44.575Z,2.00
2016-08-20T05:43:45.115Z,2.00
2016-08-20T05:44:45.683Z,2.00
2016-08-20T05:45:46.193Z,2.00
2016-08-20T05:46:46.760Z,2.00
2016-08-20T05:47:47.274Z,2.00
2016-08-20T05:48:47.961Z,2.00
2016-08-20T05:49:48.497Z,2.00
2016-08-20T05:50:49.035Z,2.00
2016-08-20T05:51:49.422Z,2.00
2016-08-20T05:52:49.966Z,2.00
2016-08-20T05:53:50.516Z,3.00
2016-08-20T05:54:51.065Z,3.00
2016-08-20T05:55:51.584Z,4.00
2016-08-20T05:56:52.121Z,5.00
2016-08-20T05:57:52.665Z,5.00
2016-08-20T05:58:53.352Z,5.00
2016-08-20T05:59:53.741Z,4.00
2016-08-20T06:00:54.283Z,4.00
2016-08-20T06:01:54.971Z,5.00
2016-08-20T06:02:55.397Z,5.00
2016-08-20T06:03:55.898Z,6.00
2016-08-20T06:04:56.441Z,6.00
2016-08-20T06:05:58.629Z,7.00
2016-08-20T06:06:57.516Z,7.00
2016-08-20T06:07:58.204Z,6.00
2016-08-20T06:08:58.594Z,5.00
2016-08-20T06:09:59.137Z,5.00
2016-08-20T06:10:59.679Z,4.00
2016-08-20T06:12:00.220Z,5.00
2016-08-20T06:13:00.792Z,5.00
2016-08-20T06:14:01.303Z,6.00
2016-08-20T06:15:01.848Z,8.00
2016-08-20T06:16:02.387Z,10.00
2016-08-20T06:17:03.077Z,12.00
2016-08-20T06:18:03.619Z,14.00
2016-08-20T06:19:04.153Z,16.00
2016-08-20T06:20:04.547Z,18.00
2016-08-20T06:21:05.083Z,18.00
2016-08-20T06:22:05.772Z,18.00
2016-08-20T06:23:06.166Z,17.00
2016-08-20T06:24:06.703Z,16.00
2016-08-20T06:25:07.245Z,16.00
2016-08-20T06:26:07.784Z,18.00
2016-08-20T06:27:08.324Z,19.00
2016-08-20T06:28:08.866Z,20.00
2016-08-20T06:29:09.406Z,18.00
2016-08-20T06:30:09.947Z,18.00
2016-08-20T06:31:10.633Z,19.00
2016-08-20T06:32:11.042Z,20.00
2016-08-20T06:33:11.561Z,20.00
2016-08-20T06:34:12.105Z,21.00
2016-08-20T06:35:12.646Z,22.00
2016-08-20T06:36:13.483Z,22.00
2016-08-20T06:37:13.734Z,22.00
2016-08-20T06:38:14.262Z,22.00
2016-08-20T06:39:14.806Z,20.00
2016-08-20T06:40:15.344Z,19.00
2016-08-20T06:41:15.884Z,18.00
2016-08-20T06:42:16.420Z,18.00
2016-08-20T06:43:16.989Z,18.00
2016-08-20T06:44:17.502Z,18.00
2016-08-20T06:45:18.188Z,18.00
2016-08-20T06:46:18.575Z,18.00
2016-08-20T06:47:19.117Z,18.00
2016-08-20T06:48:19.807Z,17.00
2016-08-20T06:49:20.351Z,17.00
2016-08-20T06:50:20.751Z,17.00
2016-08-20T06:51:21.292Z,17.00
2016-08-20T06:52:21.827Z,17.00
2016-08-20T06:53:22.367Z,16.00
2016-08-20T06:54:24.406Z,16.00
2016-08-20T06:55:23.444Z,16.00
2016-08-20T06:56:24.130Z,15.00
2016-08-20T06:57:24.673Z,14.00
2016-08-20T06:58:25.217Z,14.00
2016-08-20T06:59:25.597Z,14.00
2016-08-20T07:00:26.138Z,14.00
2016-08-20T07:01:26.680Z,15.00
2016-08-20T07:02:27.220Z,15.00
2016-08-20T07:03:27.754Z,16.00
2016-08-20T07:04:28.294Z,16.00
2016-08-20T07:05:29.025Z,17.00
2016-08-20T07:06:29.400Z,17.00
2016-08-20T07:07:29.914Z,17.00
2016-08-20T07:08:30.456Z,17.00
2016-08-20T07:09:30.994Z,18.00
2016-08-20T07:10:31.687Z,18.00
2016-08-20T07:11:32.078Z,17.00
2016-08-20T07:12:32.619Z,18.00
2016-08-20T07:13:33.156Z,19.00
2016-08-20T07:14:33.694Z,19.00
2016-08-20T07:15:34.255Z,19.00
2016-08-20T07:16:34.774Z,18.00
2016-08-20T07:17:35.312Z,18.00
2016-08-20T07:18:35.850Z,18.00
2016-08-20T07:19:36.392Z,19.00
2016-08-20T07:20:37.080Z,20.00
2016-08-20T07:21:37.471Z,20.00
2016-08-20T07:22:38.009Z,19.00
2016-08-20T07:23:38.548Z,18.00
2016-08-20T07:24:39.385Z,17.00
2016-08-20T07:25:39.628Z,16.00
2016-08-20T07:26:40.173Z,16.00
2016-08-20T07:27:40.716Z,17.00
2016-08-20T07:28:41.257Z,17.00
2016-08-20T07:29:41.797Z,17.00
2016-08-20T07:30:42.486Z,17.00
2016-08-20T07:31:42.879Z,16.00
2016-08-20T07:32:43.417Z,17.00
2016-08-20T07:33:43.959Z,17.00
2016-08-20T07:34:44.499Z,17.00
2016-08-20T07:35:45.038Z,18.00
2016-08-20T07:36:45.577Z,18.00
2016-08-20T07:37:46.275Z,19.00
2016-08-20T07:38:46.952Z,19.00
2016-08-20T07:39:47.188Z,19.00
2016-08-20T07:40:47.730Z,19.00
2016-08-20T07:41:48.270Z,20.00
2016-08-20T07:42:48.961Z,21.00
2016-08-20T07:43:49.381Z,22.00
2016-08-20T07:44:49.893Z,24.00
2016-08-20T07:45:50.436Z,24.00
2016-08-20T07:46:51.118Z,24.00
2016-08-20T07:47:51.660Z,22.00
2016-08-20T07:48:52.053Z,21.00
2016-08-20T07:49:52.592Z,21.00
2016-08-20T07:50:53.130Z,21.00
2016-08-20T07:51:53.667Z,21.00
2016-08-20T07:52:54.208Z,22.00
2016-08-20T07:53:54.750Z,23.00
2016-08-20T07:54:55.290Z,23.00
2016-08-20T07:55:55.835Z,23.00
2016-08-20T07:56:56.369Z,21.00
2016-08-20T07:57:56.958Z,22.00
2016-08-20T07:58:57.449Z,22.00
2016-08-20T07:59:57.989Z,21.00
2016-08-20T08:00:58.530Z,20.00
2016-08-20T08:01:59.075Z,19.00
2016-08-20T08:02:59.616Z,18.00
2016-08-20T08:04:00.161Z,18.00
2016-08-20T08:05:00.848Z,18.00
2016-08-20T08:06:01.235Z,17.00
2016-08-20T08:07:01.795Z,17.00
2016-08-20T08:08:02.320Z,16.00
2016-08-20T08:09:03.002Z,16.00
2016-08-20T08:10:03.395Z,17.00
2016-08-20T08:11:03.935Z,18.00
2016-08-20T08:12:04.475Z,18.00
2016-08-20T08:13:05.014Z,18.00
2016-08-20T08:14:05.559Z,18.00
2016-08-20T08:15:06.094Z,19.00
2016-08-20T08:16:06.786Z,21.00
2016-08-20T08:17:07.326Z,23.00
2016-08-20T08:18:07.745Z,25.00
2016-08-20T08:19:08.255Z,26.00
2016-08-20T08:20:08.817Z,27.00
2016-08-20T08:21:09.331Z,28.00
2016-08-20T08:22:09.870Z,28.00
2016-08-20T08:23:10.414Z,27.00
2016-08-20T08:24:10.956Z,27.00
2016-08-20T08:25:11.490Z,28.00
2016-08-20T08:26:12.030Z,28.00
2016-08-20T08:27:12.568Z,28.00
2016-08-20T08:28:13.105Z,27.00
2016-08-20T08:29:13.642Z,27.00
2016-08-20T08:30:14.183Z,26.00
2016-08-20T08:31:14.722Z,26.00
2016-08-20T08:32:15.263Z,25.00
2016-08-20T08:33:15.800Z,23.00
2016-08-20T08:34:16.339Z,23.00
2016-08-20T08:35:16.908Z,25.00
2016-08-20T08:36:17.423Z,26.00
2016-08-20T08:37:18.133Z,26.00
2016-08-20T08:38:18.534Z,26.00
2016-08-20T08:39:19.053Z,27.00
2016-08-20T08:40:19.597Z,29.00
2016-08-20T08:41:20.136Z,31.00
2016-08-20T08:42:20.683Z,33.00
2016-08-20T08:43:21.212Z,32.00
2016-08-20T08:44:21.753Z,32.00
2016-08-20T08:45:22.443Z,33.00
2016-08-20T08:46:22.833Z,32.00
2016-08-20T08:47:23.523Z,29.00
2016-08-20T08:48:23.920Z,25.00
2016-08-20T08:49:24.454Z,22.00
2016-08-20T08:50:24.992Z,24.00
2016-08-20T08:51:25.688Z,25.00
2016-08-20T08:52:26.069Z,25.00
2016-08-20T08:53:26.615Z,26.00
2016-08-20T08:54:27.307Z,26.00
2016-08-20T08:55:27.841Z,26.00
2016-08-20T08:56:28.243Z,25.00
2016-08-20T08:57:28.783Z,25.00
2016-08-20T08:58:29.310Z,25.00
2016-08-20T08:59:30.000Z,25.00
2016-08-20T09:00:30.390Z,25.00
2016-08-20T09:01:30.929Z,27.00
2016-08-20T09:02:31.467Z,28.00
2016-08-20T09:03:32.013Z,28.00
2016-08-20T09:04:32.545Z,27.00
2016-08-20T09:05:33.086Z,28.00
2016-08-20T09:06:33.620Z,28.00
2016-08-20T09:07:34.163Z,29.00
2016-08-20T09:08:34.703Z,30.00
2016-08-20T09:09:35.243Z,30.00
2016-08-20T09:10:35.783Z,30.00
2016-08-20T09:11:36.322Z,30.00
2016-08-20T09:12:36.859Z,32.00
2016-08-20T09:13:37.399Z,32.00
2016-08-20T09:14:37.940Z,33.00
2016-08-20T09:15:39.837Z,36.00
2016-08-20T09:16:39.070Z,44.00
2016-08-20T09:17:39.576Z,75.00
2016-08-20T09:18:40.115Z,75.00
2016-08-20T09:19:40.651Z,38.00
2016-08-20T09:20:41.342Z,34.00
2016-08-20T09:21:41.732Z,31.00
2016-08-20T09:22:42.270Z,28.00
2016-08-20T09:23:42.815Z,30.00
2016-08-20T09:24:43.354Z,31.00
2016-08-20T09:25:44.040Z,32.00
2016-08-20T09:26:44.433Z,38.00
2016-08-20T09:27:44.973Z,42.00
2016-08-20T09:28:45.515Z,43.00
2016-08-20T09:29:46.054Z,40.00
2016-08-20T09:30:46.604Z,43.00
2016-08-20T09:31:47.155Z,53.00
2016-08-20T09:32:47.674Z,47.00
2016-08-20T09:33:48.216Z,48.00
2016-08-20T09:34:48.754Z,48.00
2016-08-20T09:35:49.332Z,69.00
2016-08-20T09:36:49.838Z,70.00
2016-08-20T09:37:50.378Z,68.00
2016-08-20T09:38:50.919Z,71.00
2016-08-20T09:39:51.455Z,73.00
2016-08-20T09:40:52.148Z,72.00
2016-08-20T09:41:52.541Z,73.00
2016-08-20T09:42:53.226Z,57.00
2016-08-20T09:43:53.618Z,71.00
2016-08-20T09:44:54.157Z,68.00
2016-08-20T09:45:55.919Z,69.00
2016-08-20T09:46:55.235Z,66.00
2016-08-20T09:47:55.771Z,58.00
2016-08-20T09:48:56.312Z,52.00
2016-08-20T09:49:56.853Z,47.00
2016-08-20T09:50:57.397Z,48.00
2016-08-20T09:51:57.940Z,59.00
2016-08-20T09:52:58.483Z,68.00
2016-08-20T09:53:59.171Z,57.00
2016-08-20T09:54:59.567Z,58.00
2016-08-20T09:56:00.105Z,70.00
2016-08-20T09:57:00.643Z,60.00
2016-08-20T09:58:01.187Z,53.00
2016-08-20T09:59:01.728Z,42.00
2016-08-20T10:00:02.267Z,37.00
2016-08-20T10:01:02.808Z,31.00
2016-08-20T10:02:03.495Z,30.00
2016-08-20T10:03:03.887Z,28.00
2016-08-20T10:04:04.443Z,25.00
2016-08-20T10:05:04.960Z,22.00
2016-08-20T10:06:05.503Z,19.00
2016-08-20T10:07:06.045Z,16.00
2016-08-20T10:08:06.735Z,15.00
2016-08-20T10:09:07.122Z,13.00
2016-08-20T10:10:07.683Z,12.00
2016-08-20T10:11:08.210Z,10.00
2016-08-20T10:12:08.742Z,10.00
2016-08-20T10:13:09.299Z,9.00
2016-08-20T10:14:09.823Z,9.00
2016-08-20T10:15:10.358Z,9.00
2016-08-20T10:16:10.901Z,9.00
2016-08-20T10:17:11.442Z,10.00
2016-08-20T10:18:12.157Z,11.00
2016-08-20T10:19:12.521Z,11.00
2016-08-20T10:20:13.061Z,11.00
2016-08-20T10:21:13.606Z,11.00
2016-08-20T10:22:14.140Z,11.00
2016-08-20T10:23:14.714Z,10.00
2016-08-20T10:24:15.218Z,10.00
2016-08-20T10:25:15.760Z,11.00
2016-08-20T10:26:16.305Z,13.00
2016-08-20T10:27:16.991Z,16.00
2016-08-20T10:28:17.387Z,18.00
2016-08-20T10:29:17.929Z,19.00
2016-08-20T10:30:18.474Z,19.00
2016-08-20T10:31:19.012Z,18.00
2016-08-20T10:32:19.556Z,19.00
2016-08-20T10:33:20.246Z,20.00
2016-08-20T10:34:20.635Z,19.00
2016-08-20T10:35:21.326Z,19.00
2016-08-20T10:36:21.715Z,19.00
2016-08-20T10:37:22.403Z,18.00
2016-08-20T10:38:22.791Z,16.00
2016-08-20T10:39:23.329Z,13.00
2016-08-20T10:40:23.869Z,12.00
2016-08-20T10:41:24.569Z,11.00
2016-08-20T10:42:25.094Z,10.00
2016-08-20T10:43:25.489Z,9.00
2016-08-20T10:44:26.028Z,8.00
2016-08-20T10:45:26.567Z,7.00
2016-08-20T10:46:27.106Z,7.00
2016-08-20T10:47:27.647Z,7.00
2016-08-20T10:48:28.185Z,8.00
2016-08-20T10:49:28.728Z,9.00
2016-08-20T10:50:29.289Z,11.00
2016-08-20T10:51:29.818Z,11.00
2016-08-20T10:52:30.491Z,11.00
2016-08-20T10:53:30.887Z,11.00
2016-08-20T10:54:31.421Z,9.00
2016-08-20T10:55:31.959Z,7.00
2016-08-20T10:56:32.648Z,6.00
2016-08-20T10:57:33.042Z,5.00
2016-08-20T10:58:33.581Z,5.00
2016-08-20T10:59:34.123Z,5.00
2016-08-20T11:00:34.661Z,5.00
2016-08-20T11:01:35.349Z,5.00
2016-08-20T11:02:35.740Z,5.00
2016-08-20T11:03:36.284Z,6.00
2016-08-20T11:04:36.826Z,6.00
2016-08-20T11:05:37.373Z,6.00
2016-08-20T11:06:37.912Z,7.00
2016-08-20T11:07:38.452Z,8.00
2016-08-20T11:08:38.993Z,8.00
2016-08-20T11:09:39.536Z,7.00
2016-08-20T11:10:40.080Z,7.00
2016-08-20T11:11:40.637Z,7.00
2016-08-20T11:12:41.152Z,6.00
2016-08-20T11:13:41.688Z,5.00
2016-08-20T11:14:42.233Z,4.00
2016-08-20T11:15:42.769Z,6.00
2016-08-20T11:16:43.307Z,8.00
2016-08-20T11:17:43.849Z,10.00
2016-08-20T11:18:44.389Z,13.00
2016-08-20T11:19:46.576Z,15.00
2016-08-20T11:20:45.616Z,18.00
2016-08-20T11:21:46.007Z,21.00
2016-08-20T11:22:46.573Z,24.00
2016-08-20T11:23:47.235Z,28.00
2016-08-20T11:24:47.624Z,37.00
2016-08-20T11:25:48.166Z,39.00
2016-08-20T11:26:48.705Z,42.00
2016-08-20T11:27:49.261Z,43.00
2016-08-20T11:28:49.807Z,43.00
2016-08-20T11:29:50.320Z,45.00
2016-08-20T11:30:50.861Z,48.00
2016-08-20T11:31:51.402Z,69.00
2016-08-20T11:32:51.938Z,55.00
2016-08-20T11:33:52.483Z,80.00
2016-08-20T11:34:53.172Z,81.00
2016-08-20T11:35:55.056Z,81.00
2016-08-20T11:36:54.094Z,81.00
2016-08-20T11:37:54.637Z,83.00
2016-08-20T11:38:55.322Z,88.00
2016-08-20T11:39:56.013Z,93.00
2016-08-20T11:40:56.257Z,89.00
2016-08-20T11:41:56.801Z,84.00
2016-08-20T11:42:57.341Z,71.00
2016-08-20T11:43:57.880Z,58.00
2016-08-20T11:44:58.420Z,55.00
2016-08-20T11:45:59.110Z,52.00
2016-08-20T11:46:59.648Z,47.00
2016-08-20T11:48:00.197Z,36.00
2016-08-20T11:49:00.736Z,32.00
2016-08-20T11:50:01.124Z,31.00
2016-08-20T11:51:01.660Z,30.00
2016-08-20T11:52:02.200Z,29.00
2016-08-20T11:53:02.891Z,31.00
2016-08-20T11:54:03.281Z,32.00
2016-08-20T11:55:03.977Z,36.00
2016-08-20T11:56:04.511Z,44.00
2016-08-20T11:57:04.906Z,47.00
2016-08-20T11:58:05.441Z,40.00
2016-08-20T11:59:05.983Z,38.00
2016-08-20T12:00:06.518Z,36.00
2016-08-20T12:01:07.061Z,36.00
2016-08-20T12:02:07.622Z,37.00
2016-08-20T12:03:08.139Z,39.00
2016-08-20T12:04:08.679Z,45.00
2016-08-20T12:05:09.217Z,49.00
2016-08-20T12:06:09.757Z,51.00
2016-08-20T12:07:10.293Z,53.00
2016-08-20T12:08:10.983Z,49.00
2016-08-20T12:09:11.372Z,48.00
2016-08-20T12:10:11.913Z,50.00
2016-08-20T12:11:12.456Z,54.00
2016-08-20T12:12:12.987Z,56.00
2016-08-20T12:13:13.531Z,70.00
2016-08-20T12:14:14.219Z,72.00
2016-08-20T12:15:14.609Z,61.00
2016-08-20T12:16:15.155Z,49.00
2016-08-20T12:17:15.694Z,42.00
2016-08-20T12:18:16.262Z,42.00
2016-08-20T12:19:16.808Z,47.00
2016-08-20T12:20:17.323Z,56.00
2016-08-20T12:21:17.857Z,63.00
2016-08-20T12:22:18.431Z,47.00
2016-08-20T12:23:18.940Z,48.00
2016-08-20T12:24:19.482Z,62.00
2016-08-20T12:25:20.021Z,61.00
2016-08-20T12:26:20.711Z,60.00
2016-08-20T12:27:21.113Z,53.00
2016-08-20T12:28:21.798Z,49.00
2016-08-20T12:29:22.180Z,46.00
2016-08-20T12:30:22.869Z,47.00
2016-08-20T12:31:23.264Z,49.00
2016-08-20T12:32:23.795Z,48.00
2016-08-20T12:33:24.337Z,55.00
2016-08-20T12:34:25.031Z,52.00
2016-08-20T12:35:25.570Z,59.00
2016-08-20T12:36:26.127Z,53.00
2016-08-20T12:37:26.524Z,48.00
2016-08-20T12:38:27.039Z,44.00
2016-08-20T12:39:27.578Z,42.00
2016-08-20T12:40:28.114Z,43.00
2016-08-20T12:41:28.659Z,60.00
2016-08-20T12:42:29.360Z,62.00
2016-08-20T12:43:29.751Z,40.00
2016-08-20T12:44:30.275Z,48.00
2016-08-20T12:45:30.818Z,43.00
2016-08-20T12:46:31.370Z,58.00
2016-08-20T12:47:31.897Z,54.00
2016-08-20T12:48:32.442Z,55.00
2016-08-20T12:49:32.976Z,59.00
2016-08-20T12:50:33.517Z,35.00
2016-08-20T12:51:34.206Z,35.00
2016-08-20T12:52:34.601Z,38.00
2016-08-20T12:53:37.095Z,41.00
2016-08-20T12:54:35.682Z,38.00
2016-08-20T12:55:36.256Z,35.00
2016-08-20T12:56:36.766Z,34.00
2016-08-20T12:57:37.300Z,33.00
2016-08-20T12:58:37.842Z,35.00
2016-08-20T12:59:38.383Z,36.00
2016-08-20T13:00:38.920Z,37.00
2016-08-20T13:01:39.464Z,40.00
2016-08-20T13:02:40.006Z,38.00
2016-08-20T13:03:40.543Z,35.00
2016-08-20T13:04:41.081Z,34.00
2016-08-20T13:05:41.621Z,32.00
2016-08-20T13:06:42.166Z,32.00
2016-08-20T13:07:42.702Z,32.00
2016-08-20T13:08:43.242Z,31.00
2016-08-20T13:09:43.781Z,28.00
2016-08-20T13:10:44.323Z,22.00
2016-08-20T13:11:45.610Z,18.00
2016-08-20T13:12:45.401Z,20.00